Deschaillons-Sur-Saint-Laurent, Canada
Current Conditions -  °F | °C
As of 8:39 PM on Tuesday 27 Jan 2015 (Local Time) from CYRQ Reporting Station
Overcast Overcast  
Wind Chill: -13°   Ceiling: 7000
Heat Index:   Visibility: 9mi
Dew Point: -9°   Wind: 15mph
Humidity: 52%   Direction: 360°N
Pressure: 30.02"   Gusts: 25mph
Location:  46.55°N, 72.12°W
Report Text: CYRQ 280139Z AUTO 36013G22KT 9SM OVC070 M15/M23 A3002 RMK SLP172
Loading
Personal Weather Stations






























Interactive Weather Map New forecast layout! Learn more

10-Day Weather Forecast

Advertisements
Track Severe Weather on mobile